createdAt,value
2018-07-28T00:01:17.214Z,99670.27
2018-07-28T00:06:21.258Z,99681.29
2018-07-28T00:11:25.049Z,99681.47
2018-07-28T00:16:28.660Z,99672.25
2018-07-28T00:21:32.555Z,99662.92
2018-07-28T00:26:36.259Z,99656.86
2018-07-28T00:31:39.914Z,99645.91
2018-07-28T00:36:43.654Z,99651.34
2018-07-28T00:41:47.322Z,99641.70
2018-07-28T00:46:51.003Z,99635.09
2018-07-28T00:51:54.667Z,99635.39
2018-07-28T00:56:58.310Z,99621.52
2018-07-28T01:02:01.971Z,99618.77
2018-07-28T01:07:05.858Z,99615.81
2018-07-28T01:12:09.647Z,99612.83
2018-07-28T01:17:13.382Z,99601.67
2018-07-28T01:22:17.085Z,99608.53
2018-07-28T01:27:20.838Z,99598.63
2018-07-28T01:32:24.502Z,99592.72
2018-07-28T01:37:28.250Z,99592.03
2018-07-28T01:42:31.894Z,99583.70
2018-07-28T01:47:36.233Z,99578.89
2018-07-28T01:52:40.365Z,99574.76
2018-07-28T01:57:44.186Z,99564.59
2018-07-28T02:02:47.984Z,99548.86
2018-07-28T02:07:51.937Z,99544.37
2018-07-28T02:12:56.244Z,99550.14
2018-07-28T02:17:59.994Z,99543.06
2018-07-28T02:23:03.812Z,99536.66
2018-07-28T02:28:08.102Z,99542.42
2018-07-28T02:33:12.449Z,99542.13
2018-07-28T02:38:16.463Z,99538.39
2018-07-28T02:43:20.489Z,99542.30
2018-07-28T02:48:24.331Z,99539.42
2018-07-28T02:53:28.298Z,99537.77
2018-07-28T02:58:32.130Z,99538.27
2018-07-28T03:03:35.875Z,99526.39
2018-07-28T03:08:39.772Z,99529.11
2018-07-28T03:13:43.523Z,99533.31
2018-07-28T03:18:47.233Z,99531.36
2018-07-28T03:23:50.976Z,99528.44
2018-07-28T03:28:54.741Z,99525.71
2018-07-28T03:33:58.382Z,99524.48
2018-07-28T03:39:02.288Z,99525.45
2018-07-28T03:44:06.121Z,99524.75
2018-07-28T03:49:09.902Z,99521.52
2018-07-28T03:54:13.586Z,99522.88
2018-07-28T03:59:17.360Z,99522.50
2018-07-28T04:04:21.029Z,99528.77
2018-07-28T04:09:24.714Z,99527.06
2018-07-28T04:14:28.436Z,99521.77
2018-07-28T04:19:32.222Z,99521.63
2018-07-28T04:24:35.941Z,99512.98
2018-07-28T04:29:39.713Z,99518.41
2018-07-28T04:34:43.366Z,99507.70
2018-07-28T04:39:47.136Z,99507.73
2018-07-28T04:44:50.875Z,99514.02
2018-07-28T04:49:54.554Z,99519.61
2018-07-28T04:54:58.258Z,99504.17
2018-07-28T05:00:05.223Z,99511.97
2018-07-28T05:05:08.913Z,99505.53
2018-07-28T05:10:12.688Z,99502.48
2018-07-28T05:15:16.381Z,99498.92
2018-07-28T05:20:19.988Z,99494.86
2018-07-28T05:25:23.826Z,99496.03
2018-07-28T05:30:28.130Z,99496.59
2018-07-28T05:35:31.873Z,99498.97
2018-07-28T05:40:35.582Z,99505.45
2018-07-28T05:45:39.222Z,99505.80
2018-07-28T05:50:43.562Z,99500.23
2018-07-28T05:55:47.247Z,99501.42
2018-07-28T06:00:51.043Z,99495.02
2018-07-28T06:05:54.850Z,99496.71
2018-07-28T06:10:58.578Z,99487.55
2018-07-28T06:16:02.362Z,99491.97
2018-07-28T06:21:06.209Z,99496.24
2018-07-28T06:26:10.039Z,99496.76
2018-07-28T06:31:13.723Z,99495.06
2018-07-28T06:36:20.915Z,99484.75
2018-07-28T06:41:25.851Z,99485.09
2018-07-28T06:46:29.630Z,99477.63
2018-07-28T06:51:33.453Z,99475.97
2018-07-28T06:56:37.631Z,99472.78
2018-07-28T07:01:42.442Z,99472.65
2018-07-28T07:06:46.537Z,99477.17
2018-07-28T07:11:50.226Z,99477.70
2018-07-28T07:16:53.833Z,99482.16
2018-07-28T07:21:57.549Z,99479.09
2018-07-28T07:27:01.293Z,99471.06
2018-07-28T07:32:05.063Z,99464.84
2018-07-28T07:37:08.783Z,99461.95
2018-07-28T07:42:12.678Z,99463.31
2018-07-28T07:47:16.398Z,99462.30
2018-07-28T07:52:20.155Z,99448.28
2018-07-28T07:57:23.897Z,99442.34
2018-07-28T08:02:27.672Z,99439.23
2018-07-28T08:07:31.935Z,99441.16
2018-07-28T08:12:35.688Z,99440.55
2018-07-28T08:17:39.382Z,99440.66
2018-07-28T08:22:43.104Z,99442.03
2018-07-28T08:27:47.049Z,99444.45
2018-07-28T08:32:50.832Z,99439.33
2018-07-28T08:37:54.720Z,99437.82
2018-07-28T08:42:58.542Z,99437.00
2018-07-28T08:48:02.440Z,99445.84
2018-07-28T08:53:06.565Z,99441.42
2018-07-28T08:58:10.450Z,99444.82
2018-07-28T09:03:15.125Z,99447.56
2018-07-28T09:08:18.824Z,99449.25
2018-07-28T09:13:22.514Z,99444.84
2018-07-28T09:18:26.473Z,99447.89
2018-07-28T09:23:30.301Z,99446.05
2018-07-28T09:28:33.931Z,99436.52
2018-07-28T09:33:37.724Z,99428.69
2018-07-28T09:38:41.430Z,99422.07
2018-07-28T09:43:45.205Z,99406.58
2018-07-28T09:48:48.918Z,99409.30
2018-07-28T09:53:52.546Z,99404.73
2018-07-28T09:58:56.188Z,99406.58
2018-07-28T10:03:59.945Z,99402.67
2018-07-28T10:09:03.726Z,99404.55
2018-07-28T10:14:07.504Z,99412.53
2018-07-28T10:19:11.242Z,99397.06
2018-07-28T10:24:14.964Z,99389.58
2018-07-28T10:29:18.651Z,99381.43
2018-07-28T10:34:22.325Z,99382.47
2018-07-28T10:39:26.060Z,99378.73
2018-07-28T10:44:29.810Z,99377.70
2018-07-28T10:49:33.534Z,99372.27
2018-07-28T10:54:37.207Z,99363.61
2018-07-28T10:59:40.819Z,99363.94
2018-07-28T11:04:44.602Z,99358.19
2018-07-28T11:09:48.281Z,99355.79
2018-07-28T11:14:51.929Z,99347.64
2018-07-28T11:19:55.598Z,99347.98
2018-07-28T11:24:59.374Z,99325.06
2018-07-28T11:30:05.545Z,99322.16
2018-07-28T11:35:20.374Z,99325.56
2018-07-28T11:41:33.237Z,99324.38
2018-07-28T11:46:37.031Z,99310.11
2018-07-28T11:51:40.755Z,99307.57
2018-07-28T11:56:44.383Z,99306.87
2018-07-28T12:01:48.230Z,99307.72
2018-07-28T12:06:51.907Z,99305.71
2018-07-28T12:11:55.635Z,99304.34
2018-07-28T12:16:59.330Z,99307.73
2018-07-28T12:22:03.006Z,99315.55
2018-07-28T12:27:06.839Z,99305.51
2018-07-28T12:32:10.576Z,99307.73
2018-07-28T12:37:14.191Z,99304.83
2018-07-28T12:42:17.850Z,99300.42
2018-07-28T12:47:21.503Z,99304.52
2018-07-28T12:52:25.190Z,99298.55
2018-07-28T12:57:29.259Z,99306.89
2018-07-28T13:02:33.050Z,99297.39
2018-07-28T13:07:36.785Z,99281.94
2018-07-28T13:12:40.449Z,99269.69
2018-07-28T13:17:44.262Z,99271.89
2018-07-28T13:22:47.898Z,99278.00
2018-07-28T13:27:51.543Z,99272.25
2018-07-28T13:32:55.155Z,99263.56
2018-07-28T13:37:59.966Z,99264.59
2018-07-28T13:43:03.800Z,99257.47
2018-07-28T13:48:07.533Z,99277.16
2018-07-28T13:53:11.516Z,99277.67
2018-07-28T13:58:15.359Z,99287.34
2018-07-28T14:03:19.114Z,99283.80
2018-07-28T14:08:22.791Z,99286.86
2018-07-28T14:13:26.553Z,99305.88
2018-07-28T14:18:30.503Z,99331.34
2018-07-28T14:23:34.284Z,99372.14
2018-07-28T14:28:38.230Z,99387.77
2018-07-28T14:33:42.028Z,99393.37
2018-07-28T14:38:45.689Z,99418.02
2018-07-28T14:43:49.389Z,99388.33
2018-07-28T14:48:53.323Z,99341.20
2018-07-28T14:53:57.074Z,99319.20
2018-07-28T14:59:01.193Z,99306.84
2018-07-28T15:04:05.039Z,99308.70
2018-07-28T15:09:10.590Z,99309.73
2018-07-28T15:14:14.319Z,99348.35
2018-07-28T15:19:18.324Z,99336.16
2018-07-28T15:24:22.974Z,99343.96
2018-07-28T15:29:28.003Z,99349.31
2018-07-28T15:34:31.757Z,99346.21
2018-07-28T15:39:35.546Z,99341.97
2018-07-28T15:44:39.215Z,99344.00
2018-07-28T15:49:44.294Z,99336.48
2018-07-28T15:54:48.046Z,99347.67
2018-07-28T15:59:51.792Z,99363.13
2018-07-28T16:04:55.585Z,99372.73
2018-07-28T16:09:59.419Z,99399.16
2018-07-28T16:15:05.685Z,99434.14
2018-07-28T16:20:09.601Z,99425.73
2018-07-28T16:25:13.518Z,99441.44
2018-07-28T16:30:17.213Z,99427.78
2018-07-28T16:35:20.960Z,99431.84
2018-07-28T16:40:24.811Z,99449.41
2018-07-28T16:45:29.025Z,99474.17
2018-07-28T16:50:32.878Z,99547.86
2018-07-28T16:55:39.021Z,99544.73
2018-07-28T17:00:42.647Z,99566.98
2018-07-28T17:05:46.419Z,99551.32
2018-07-28T17:10:50.223Z,99538.81
2018-07-28T17:15:56.955Z,99553.13
2018-07-28T17:21:00.817Z,99558.78
2018-07-28T17:26:04.694Z,99558.94
2018-07-28T17:31:08.832Z,99530.22
2018-07-28T17:36:12.664Z,99503.45
2018-07-28T17:41:16.802Z,99481.31
2018-07-28T17:46:20.527Z,99471.02
2018-07-28T17:51:24.422Z,99463.08
2018-07-28T17:56:28.333Z,99445.73
2018-07-28T18:01:32.122Z,99443.30
2018-07-28T18:06:35.818Z,99453.23
2018-07-28T18:11:39.514Z,99459.10
2018-07-28T18:16:43.214Z,99461.81
2018-07-28T18:21:46.891Z,99471.70
2018-07-28T18:26:50.673Z,99484.02
2018-07-28T18:31:55.447Z,99511.83
2018-07-28T18:37:00.101Z,99556.55
2018-07-28T18:42:03.968Z,99564.20
2018-07-28T18:47:07.759Z,99574.46
2018-07-28T18:52:11.843Z,99586.58
2018-07-28T18:57:15.575Z,99613.05
2018-07-28T19:02:19.517Z,99623.77
2018-07-28T19:07:24.371Z,99618.27
2018-07-28T19:12:33.818Z,99614.38
2018-07-28T19:17:42.843Z,99610.59
2018-07-28T19:22:51.777Z,99622.09
2018-07-28T19:28:00.804Z,99636.70
2018-07-28T19:33:12.708Z,99631.75
2018-07-28T19:38:16.603Z,99652.23
2018-07-28T19:43:20.378Z,99659.35
2018-07-28T19:48:24.099Z,99678.02
2018-07-28T19:53:27.799Z,99672.70
2018-07-28T19:58:31.498Z,99665.25
2018-07-28T20:03:35.165Z,99680.06
2018-07-28T20:25:04.197Z,99721.71
2018-07-28T20:30:08.109Z,99729.67
2018-07-28T20:35:11.801Z,99724.59
2018-07-28T20:40:15.463Z,99711.41
2018-07-28T20:45:19.187Z,99715.48
2018-07-28T20:50:22.889Z,99711.52
2018-07-28T20:55:27.047Z,99740.41
2018-07-28T21:00:30.806Z,99740.03
2018-07-28T21:05:34.666Z,99752.64
2018-07-28T21:10:38.366Z,99766.16
2018-07-28T21:15:42.128Z,99761.19
2018-07-28T21:20:45.919Z,99770.84
2018-07-28T21:25:49.757Z,99779.28
2018-07-28T21:30:53.375Z,99777.66
2018-07-28T21:35:57.089Z,99764.92
2018-07-28T21:41:00.729Z,99753.67
2018-07-28T21:46:04.488Z,99743.44
2018-07-28T21:51:08.372Z,99730.14
2018-07-28T21:56:12.096Z,99738.01
2018-07-28T22:01:17.319Z,99755.59
2018-07-28T22:06:20.981Z,99787.58
2018-07-28T22:11:24.676Z,99813.25
2018-07-28T22:16:28.338Z,99786.57
2018-07-28T22:21:32.047Z,99789.34
2018-07-28T22:26:35.765Z,99808.36
2018-07-28T22:31:39.658Z,99797.48
2018-07-28T22:36:43.335Z,99801.07
2018-07-28T22:41:47.033Z,99822.34
2018-07-28T22:46:50.755Z,99841.85
2018-07-28T22:51:54.422Z,99858.97
2018-07-28T22:56:58.096Z,99883.48
2018-07-28T23:02:01.733Z,99911.04
2018-07-28T23:07:05.462Z,99953.45
2018-07-28T23:12:09.074Z,99968.14
2018-07-28T23:17:12.667Z,99974.97
2018-07-28T23:22:19.294Z,99972.67
2018-07-28T23:27:22.938Z,99984.61
2018-07-28T23:32:26.749Z,99995.23
2018-07-28T23:37:30.441Z,99995.38
2018-07-28T23:42:34.113Z,99996.36
2018-07-28T23:47:37.771Z,100003.60
2018-07-28T23:52:41.406Z,100011.02
2018-07-28T23:57:45.140Z,100000.78
